createdAt,value
2023-11-17T00:00:59.930Z,5.57
2023-11-17T00:01:59.927Z,5.48
2023-11-17T00:03:00.086Z,5.43
2023-11-17T00:03:59.969Z,5.39
2023-11-17T00:04:59.888Z,5.40
2023-11-17T00:05:59.788Z,5.43
2023-11-17T00:06:59.799Z,5.40
2023-11-17T00:07:59.733Z,5.31
2023-11-17T00:08:59.705Z,5.43
2023-11-17T00:09:59.694Z,5.45
2023-11-17T00:10:59.650Z,5.46
2023-11-17T00:11:59.650Z,5.45
2023-11-17T00:12:59.611Z,5.61
2023-11-17T00:13:59.563Z,5.53
2023-11-17T00:14:59.540Z,5.61
2023-11-17T00:15:59.588Z,5.67
2023-11-17T00:16:59.576Z,5.56
2023-11-17T00:17:59.505Z,5.61
2023-11-17T00:18:59.477Z,5.61
2023-11-17T00:19:59.421Z,5.60
2023-11-17T00:20:59.380Z,5.65
2023-11-17T00:21:59.390Z,5.60
2023-11-17T00:22:59.320Z,5.61
2023-11-17T00:23:59.297Z,5.60
2023-11-17T00:24:59.287Z,5.58
2023-11-17T00:25:59.237Z,5.61
2023-11-17T00:26:59.223Z,5.60
2023-11-17T00:27:59.242Z,5.58
2023-11-17T00:28:59.157Z,5.63
2023-11-17T00:29:59.134Z,5.64
2023-11-17T00:30:59.163Z,5.63
2023-11-17T00:31:59.085Z,5.48
2023-11-17T00:32:59.106Z,5.54
2023-11-17T00:33:59.170Z,5.54
2023-11-17T00:34:59.116Z,5.53
2023-11-17T00:35:58.969Z,5.40
2023-11-17T00:36:59.041Z,5.48
2023-11-17T00:37:58.924Z,5.58
2023-11-17T00:38:58.885Z,5.61
2023-11-17T00:39:58.890Z,5.53
2023-11-17T00:40:58.827Z,5.48
2023-11-17T00:41:58.812Z,5.57
2023-11-17T00:42:58.844Z,5.57
2023-11-17T00:43:58.920Z,5.45
2023-11-17T00:44:58.722Z,5.42
2023-11-17T00:45:58.880Z,5.36
2023-11-17T00:46:58.818Z,5.38
2023-11-17T00:47:58.701Z,5.33
2023-11-17T00:48:58.662Z,5.36
2023-11-17T00:49:58.589Z,5.40
2023-11-17T00:50:58.556Z,5.45
2023-11-17T00:51:58.565Z,5.57
2023-11-17T00:52:58.503Z,5.54
2023-11-17T00:53:58.482Z,5.51
2023-11-17T00:54:58.457Z,5.53
2023-11-17T00:55:58.420Z,5.54
2023-11-17T00:56:58.398Z,5.53
2023-11-17T00:57:58.385Z,5.60
2023-11-17T00:58:58.342Z,5.51
2023-11-17T00:59:58.332Z,5.49
2023-11-17T01:00:58.324Z,5.42
2023-11-17T01:01:58.282Z,5.42
2023-11-17T01:02:58.264Z,5.42
2023-11-17T01:03:58.237Z,5.33
2023-11-17T01:04:58.176Z,5.45
2023-11-17T01:05:58.150Z,5.43
2023-11-17T01:06:58.153Z,5.39
2023-11-17T01:07:58.105Z,5.53
2023-11-17T01:08:58.091Z,5.51
2023-11-17T01:09:58.083Z,5.45
2023-11-17T01:10:58.015Z,5.54
2023-11-17T01:11:57.983Z,5.51
2023-11-17T01:12:58.094Z,5.48
2023-11-17T01:13:57.937Z,5.49
2023-11-17T01:14:57.901Z,5.51
2023-11-17T01:15:57.927Z,5.51
2023-11-17T01:16:57.881Z,5.40
2023-11-17T01:17:57.834Z,5.57
2023-11-17T01:18:57.797Z,5.57
2023-11-17T01:19:57.766Z,5.43
2023-11-17T01:20:57.753Z,5.53
2023-11-17T01:21:57.729Z,5.43
2023-11-17T01:22:57.684Z,5.48
2023-11-17T01:23:57.658Z,5.43
2023-11-17T01:24:57.664Z,5.42
2023-11-17T01:25:57.607Z,5.39
2023-11-17T01:26:57.578Z,5.40
2023-11-17T01:27:57.582Z,5.43
2023-11-17T01:28:57.520Z,5.42
2023-11-17T01:29:57.492Z,5.40
2023-11-17T01:30:57.489Z,5.40
2023-11-17T01:31:57.457Z,5.36
2023-11-17T01:32:57.465Z,5.33
2023-11-17T01:33:57.407Z,5.33
2023-11-17T01:34:57.367Z,5.25
2023-11-17T01:35:57.330Z,5.21
2023-11-17T01:36:57.333Z,5.24
2023-11-17T01:37:57.274Z,5.20
2023-11-17T01:38:57.249Z,5.22
2023-11-17T01:39:57.293Z,5.31
2023-11-17T01:40:57.191Z,5.33
2023-11-17T01:41:57.164Z,5.27
2023-11-17T01:42:57.172Z,5.35
2023-11-17T01:43:57.108Z,5.27
2023-11-17T01:44:57.085Z,5.30
2023-11-17T01:45:57.132Z,5.38
2023-11-17T01:46:57.196Z,5.40
2023-11-17T01:47:57.051Z,5.31
2023-11-17T01:48:57.005Z,5.31
2023-11-17T01:49:56.947Z,5.18
2023-11-17T01:50:56.926Z,5.25
2023-11-17T01:51:56.901Z,5.12
2023-11-17T01:52:56.901Z,5.06
2023-11-17T01:53:56.838Z,5.10
2023-11-17T01:54:56.826Z,5.00
2023-11-17T01:55:56.786Z,5.02
2023-11-17T01:56:56.760Z,4.94
2023-11-17T01:57:56.757Z,4.99
2023-11-17T01:58:56.768Z,5.09
2023-11-17T01:59:56.666Z,5.00
2023-11-17T02:00:56.686Z,5.03
2023-11-17T02:01:56.646Z,5.04
2023-11-17T02:02:56.714Z,5.04
2023-11-17T02:03:56.705Z,5.03
2023-11-17T02:04:56.550Z,5.07
2023-11-17T02:05:56.503Z,5.03
2023-11-17T02:06:56.515Z,5.03
2023-11-17T02:07:56.459Z,5.00
2023-11-17T02:08:56.429Z,5.04
2023-11-17T02:09:56.453Z,5.02
2023-11-17T02:10:56.526Z,5.03
2023-11-17T02:11:56.341Z,5.02
2023-11-17T02:12:56.320Z,5.07
2023-11-17T02:13:56.318Z,5.00
2023-11-17T02:14:56.262Z,5.09
2023-11-17T02:15:56.260Z,5.04
2023-11-17T02:16:56.245Z,4.99
2023-11-17T02:17:56.270Z,4.97
2023-11-17T02:18:56.207Z,4.92
2023-11-17T02:19:56.144Z,4.97
2023-11-17T02:20:56.098Z,4.92
2023-11-17T02:21:56.154Z,4.91
2023-11-17T02:22:56.048Z,4.88
2023-11-17T02:23:56.022Z,4.96
2023-11-17T02:24:56.027Z,4.94
2023-11-17T02:25:55.955Z,4.94
2023-11-17T02:26:55.951Z,4.97
2023-11-17T02:27:55.933Z,4.86
2023-11-17T02:28:55.876Z,4.88
2023-11-17T02:29:55.845Z,4.86
2023-11-17T02:30:55.934Z,4.86
2023-11-17T02:31:55.850Z,4.78
2023-11-17T02:32:55.818Z,4.82
2023-11-17T02:33:55.756Z,4.80
2023-11-17T02:34:55.709Z,4.78
2023-11-17T02:35:55.703Z,4.75
2023-11-17T02:36:55.752Z,4.78
2023-11-17T02:37:55.627Z,4.77
2023-11-17T02:38:55.603Z,4.85
2023-11-17T02:39:55.674Z,4.86
2023-11-17T02:40:55.550Z,4.80
2023-11-17T02:41:55.517Z,4.84
2023-11-17T02:42:55.508Z,4.88
2023-11-17T02:43:55.476Z,4.86
2023-11-17T02:44:55.431Z,4.89
2023-11-17T02:45:55.480Z,4.88
2023-11-17T02:46:55.408Z,4.88
2023-11-17T02:47:56.625Z,4.85
2023-11-17T02:48:55.337Z,4.82
2023-11-17T02:49:55.298Z,4.88
2023-11-17T02:50:55.271Z,4.80
2023-11-17T02:51:55.339Z,4.78
2023-11-17T02:52:55.221Z,4.82
2023-11-17T02:53:55.185Z,4.75
2023-11-17T02:54:55.208Z,4.63
2023-11-17T02:55:55.130Z,4.63
2023-11-17T02:56:55.106Z,4.65
2023-11-17T02:57:55.102Z,4.65
2023-11-17T02:58:55.060Z,4.58
2023-11-17T02:59:55.020Z,4.58
2023-11-17T03:00:55.013Z,4.66
2023-11-17T03:01:54.999Z,4.60
2023-11-17T03:02:55.020Z,4.58
2023-11-17T03:03:55.079Z,4.55
2023-11-17T03:04:54.885Z,4.67
2023-11-17T03:05:54.857Z,4.55
2023-11-17T03:06:54.865Z,4.62
2023-11-17T03:07:54.819Z,4.59
2023-11-17T03:08:54.782Z,4.59
2023-11-17T03:09:54.794Z,4.62
2023-11-17T03:10:54.729Z,4.70
2023-11-17T03:11:54.696Z,4.73
2023-11-17T03:12:54.713Z,4.80
2023-11-17T03:13:54.633Z,4.82
2023-11-17T03:14:54.820Z,4.77
2023-11-17T03:15:54.594Z,4.80
2023-11-17T03:16:54.590Z,4.86
2023-11-17T03:17:54.540Z,4.78
2023-11-17T03:18:54.520Z,4.88
2023-11-17T03:19:54.469Z,4.91
2023-11-17T03:20:54.447Z,4.92
2023-11-17T03:21:54.474Z,4.92
2023-11-17T03:22:54.396Z,4.86
2023-11-17T03:23:54.385Z,4.84
2023-11-17T03:24:54.350Z,4.72
2023-11-17T03:25:54.449Z,4.73
2023-11-17T03:26:54.286Z,4.66
2023-11-17T03:27:54.301Z,4.67
2023-11-17T03:28:54.219Z,4.62
2023-11-17T03:29:54.193Z,4.59
2023-11-17T03:30:54.192Z,4.51
2023-11-17T03:31:55.169Z,4.42
2023-11-17T03:32:54.376Z,4.40
2023-11-17T03:33:54.112Z,4.45
2023-11-17T03:34:54.058Z,4.32
2023-11-17T03:35:54.026Z,4.41
2023-11-17T03:36:54.010Z,4.32
2023-11-17T03:37:53.974Z,4.45
2023-11-17T03:38:53.950Z,4.48
2023-11-17T03:39:53.952Z,4.40
2023-11-17T03:40:53.898Z,4.40
2023-11-17T03:41:53.900Z,4.44
2023-11-17T03:42:53.901Z,4.45
2023-11-17T03:43:53.810Z,4.41
2023-11-17T03:44:53.790Z,4.42
2023-11-17T03:45:53.768Z,4.42
2023-11-17T03:46:53.810Z,4.33
2023-11-17T03:47:53.733Z,4.45
2023-11-17T03:48:53.742Z,4.36
2023-11-17T03:49:53.641Z,4.45
2023-11-17T03:50:53.616Z,4.41
2023-11-17T03:51:53.622Z,4.37
2023-11-17T03:52:55.062Z,4.44
2023-11-17T03:53:53.528Z,4.34
2023-11-17T03:54:53.530Z,4.41
2023-11-17T03:55:53.502Z,4.36
2023-11-17T03:56:53.469Z,4.37
2023-11-17T03:57:53.449Z,4.30
2023-11-17T03:58:53.398Z,4.27
2023-11-17T03:59:53.365Z,4.30
2023-11-17T04:00:53.388Z,4.27
2023-11-17T04:01:53.514Z,4.29
2023-11-17T04:02:53.433Z,4.27
2023-11-17T04:03:53.292Z,4.16
2023-11-17T04:04:53.233Z,4.15
2023-11-17T04:05:53.199Z,4.09
2023-11-17T04:06:53.215Z,4.12
2023-11-17T04:07:53.143Z,4.09
2023-11-17T04:08:53.117Z,4.09
2023-11-17T04:09:53.120Z,4.18
2023-11-17T04:10:53.073Z,4.18
2023-11-17T04:11:53.115Z,4.02
2023-11-17T04:12:53.020Z,4.16
2023-11-17T04:13:52.992Z,4.06
2023-11-17T04:14:52.951Z,4.09
2023-11-17T04:15:52.994Z,4.16
2023-11-17T04:16:53.080Z,4.09
2023-11-17T04:17:52.889Z,4.15
2023-11-17T04:18:52.883Z,4.20
2023-11-17T04:19:52.813Z,4.20
2023-11-17T04:20:52.787Z,4.23
2023-11-17T04:21:52.819Z,4.30
2023-11-17T04:22:52.737Z,4.30
2023-11-17T04:23:52.699Z,4.32
2023-11-17T04:24:52.703Z,4.32
2023-11-17T04:25:52.660Z,4.32
2023-11-17T04:26:52.618Z,4.37
2023-11-17T04:27:52.639Z,4.37
2023-11-17T04:28:52.564Z,4.44
2023-11-17T04:29:52.530Z,4.37
2023-11-17T04:30:52.612Z,4.36
2023-11-17T04:31:52.474Z,4.29
2023-11-17T04:32:52.548Z,4.27
2023-11-17T04:33:52.449Z,4.29
2023-11-17T04:34:52.402Z,4.26
2023-11-17T04:35:52.367Z,4.18
2023-11-17T04:36:52.399Z,4.15
2023-11-17T04:37:52.308Z,4.08
2023-11-17T04:38:52.287Z,4.00
2023-11-17T04:39:52.354Z,4.09
2023-11-17T04:40:52.228Z,4.00
2023-11-17T04:41:52.313Z,4.02
2023-11-17T04:42:52.235Z,3.96
2023-11-17T04:43:52.177Z,3.96
2023-11-17T04:44:52.117Z,3.86
2023-11-17T04:45:52.204Z,3.88
2023-11-17T04:46:52.115Z,3.86
2023-11-17T04:47:52.066Z,3.75
2023-11-17T04:48:52.091Z,3.79
2023-11-17T04:49:51.985Z,3.75
2023-11-17T04:50:51.952Z,3.72
2023-11-17T04:51:51.935Z,3.69
2023-11-17T04:52:51.904Z,3.72
2023-11-17T04:53:51.871Z,3.68
2023-11-17T04:54:51.870Z,3.66
2023-11-17T04:55:51.832Z,3.62
2023-11-17T04:56:51.782Z,3.65
2023-11-17T04:57:51.784Z,3.72
2023-11-17T04:58:51.734Z,3.60
2023-11-17T04:59:51.723Z,3.69
2023-11-17T05:00:51.722Z,3.70
2023-11-17T05:01:51.725Z,3.68
2023-11-17T05:02:51.644Z,3.69
2023-11-17T05:03:51.661Z,3.72
2023-11-17T05:04:51.594Z,3.69
2023-11-17T05:05:51.534Z,3.73
2023-11-17T05:06:51.537Z,3.70
2023-11-17T05:07:51.481Z,3.75
2023-11-17T05:08:51.464Z,3.80
2023-11-17T05:09:51.519Z,3.73
2023-11-17T05:10:51.430Z,3.79
2023-11-17T05:11:51.368Z,3.83
2023-11-17T05:12:51.360Z,3.84
2023-11-17T05:13:51.310Z,3.80
2023-11-17T05:14:51.333Z,3.88
2023-11-17T05:15:51.339Z,3.98
2023-11-17T05:16:51.350Z,3.93
2023-11-17T05:17:51.249Z,3.91
2023-11-17T05:18:51.220Z,3.94
2023-11-17T05:19:51.151Z,3.91
2023-11-17T05:20:51.118Z,4.02
2023-11-17T05:21:51.096Z,4.05
2023-11-17T05:22:51.061Z,4.05
2023-11-17T05:23:51.031Z,4.04
2023-11-17T05:24:51.036Z,4.04
2023-11-17T05:25:51.030Z,4.11
2023-11-17T05:26:50.952Z,4.05
2023-11-17T05:27:50.926Z,4.12
2023-11-17T05:28:50.893Z,4.04
2023-11-17T05:29:50.864Z,4.08
2023-11-17T05:30:50.887Z,4.04
2023-11-17T05:31:50.949Z,3.97
2023-11-17T05:32:50.838Z,3.88
2023-11-17T05:33:50.842Z,3.84
2023-11-17T05:34:50.727Z,3.87
2023-11-17T05:35:50.695Z,3.79
2023-11-17T05:36:50.734Z,3.76
2023-11-17T05:37:50.639Z,3.79
2023-11-17T05:38:50.633Z,3.90
2023-11-17T05:39:50.825Z,3.79
2023-11-17T05:40:50.555Z,3.87
2023-11-17T05:41:50.531Z,3.87
2023-11-17T05:42:50.520Z,3.94
2023-11-17T05:43:50.529Z,3.97
2023-11-17T05:44:50.449Z,4.09
2023-11-17T05:45:50.446Z,4.05
2023-11-17T05:46:50.495Z,4.02
2023-11-17T05:47:50.431Z,4.08
2023-11-17T05:48:50.332Z,4.04
2023-11-17T05:49:50.342Z,4.05
2023-11-17T05:50:50.281Z,4.12
2023-11-17T05:51:52.185Z,4.09
2023-11-17T05:52:50.219Z,4.20
2023-11-17T05:53:50.191Z,4.18
2023-11-17T05:54:50.167Z,4.27
2023-11-17T05:55:50.135Z,4.24
2023-11-17T05:56:50.117Z,4.32
2023-11-17T05:57:50.082Z,4.32
2023-11-17T05:58:50.074Z,4.26
2023-11-17T05:59:51.388Z,4.26
2023-11-17T06:00:49.998Z,4.27
2023-11-17T06:01:49.976Z,4.29
2023-11-17T06:02:50.052Z,4.36
2023-11-17T06:03:49.985Z,4.30
2023-11-17T06:04:50.037Z,4.30
2023-11-17T06:05:49.876Z,4.26
2023-11-17T06:06:49.832Z,4.23
2023-11-17T06:07:49.805Z,4.30
2023-11-17T06:08:49.779Z,4.20
2023-11-17T06:09:49.751Z,4.20
2023-11-17T06:10:49.723Z,4.26
2023-11-17T06:11:49.713Z,4.24
2023-11-17T06:12:49.659Z,4.18
2023-11-17T06:13:49.645Z,4.08
2023-11-17T06:14:49.610Z,4.11
2023-11-17T06:15:49.587Z,4.00
2023-11-17T06:16:49.645Z,4.14
2023-11-17T06:17:49.571Z,4.11
2023-11-17T06:18:49.502Z,4.11
2023-11-17T06:19:49.511Z,4.08
2023-11-17T06:20:49.438Z,4.11
2023-11-17T06:21:49.417Z,4.12
2023-11-17T06:22:49.378Z,4.09
2023-11-17T06:23:49.361Z,4.11
2023-11-17T06:24:49.327Z,4.08
2023-11-17T06:25:49.317Z,4.12
2023-11-17T06:26:49.277Z,4.09
2023-11-17T06:27:49.249Z,4.06
2023-11-17T06:28:49.221Z,4.08
2023-11-17T06:29:49.193Z,4.00
2023-11-17T06:30:49.161Z,4.06
2023-11-17T06:31:49.182Z,4.11
2023-11-17T06:32:49.124Z,4.08
2023-11-17T06:33:49.087Z,4.04
2023-11-17T06:34:49.049Z,4.05
2023-11-17T06:35:49.045Z,4.09
2023-11-17T06:36:48.994Z,4.05
2023-11-17T06:37:48.973Z,4.04
2023-11-17T06:38:48.941Z,3.98
2023-11-17T06:39:48.923Z,3.83
2023-11-17T06:40:48.895Z,3.90
2023-11-17T06:41:48.878Z,3.93
2023-11-17T06:42:48.854Z,3.96
2023-11-17T06:43:48.876Z,4.04
2023-11-17T06:44:48.771Z,4.04
2023-11-17T06:45:48.789Z,4.04
2023-11-17T06:46:48.843Z,4.05
2023-11-17T06:47:48.706Z,4.16
2023-11-17T06:48:48.673Z,4.08
2023-11-17T06:49:48.637Z,4.14
2023-11-17T06:50:48.605Z,4.24
2023-11-17T06:51:48.604Z,4.24
2023-11-17T06:52:48.552Z,4.11
2023-11-17T06:53:48.529Z,4.16
2023-11-17T06:54:48.492Z,4.20
2023-11-17T06:55:48.468Z,4.15
2023-11-17T06:56:48.436Z,4.23
2023-11-17T06:57:48.412Z,4.14
2023-11-17T06:58:48.385Z,4.12
2023-11-17T06:59:48.360Z,4.14
2023-11-17T07:00:48.336Z,4.04
2023-11-17T07:01:48.541Z,4.09
2023-11-17T07:02:48.335Z,4.12
2023-11-17T07:03:48.365Z,4.12
2023-11-17T07:04:48.245Z,4.14
2023-11-17T07:05:48.197Z,4.11
2023-11-17T07:06:48.160Z,4.09
2023-11-17T07:07:48.290Z,4.05
2023-11-17T07:08:48.107Z,4.05
2023-11-17T07:09:48.084Z,4.00
2023-11-17T07:10:48.051Z,4.04
2023-11-17T07:11:48.034Z,4.04
2023-11-17T07:12:47.989Z,4.04
2023-11-17T07:13:50.066Z,4.09
2023-11-17T07:14:47.996Z,4.05
2023-11-17T07:15:47.907Z,4.08
2023-11-17T07:16:47.901Z,4.20
2023-11-17T07:17:47.935Z,4.16
2023-11-17T07:18:47.825Z,4.29
2023-11-17T07:19:47.796Z,4.26
2023-11-17T07:20:47.775Z,4.23
2023-11-17T07:21:47.813Z,4.24
2023-11-17T07:22:47.742Z,4.12
2023-11-17T07:23:47.806Z,4.27
2023-11-17T07:24:47.655Z,4.22
2023-11-17T07:25:47.631Z,4.09
2023-11-17T07:26:47.633Z,4.12
2023-11-17T07:27:47.579Z,4.16
2023-11-17T07:28:47.572Z,4.08
2023-11-17T07:29:47.513Z,4.18
2023-11-17T07:30:47.512Z,4.15
2023-11-17T07:31:47.584Z,4.32
2023-11-17T07:32:47.475Z,4.14
2023-11-17T07:33:47.406Z,4.20
2023-11-17T07:34:47.376Z,4.24
2023-11-17T07:35:47.386Z,4.24
2023-11-17T07:36:47.330Z,4.23
2023-11-17T07:37:47.302Z,4.30
2023-11-17T07:38:47.269Z,4.30
2023-11-17T07:39:47.350Z,4.23
2023-11-17T07:40:47.313Z,4.32
2023-11-17T07:41:47.195Z,4.26
2023-11-17T07:42:47.158Z,4.30
2023-11-17T07:43:47.131Z,4.27
2023-11-17T07:44:47.099Z,4.27
2023-11-17T07:45:47.079Z,4.23
2023-11-17T07:46:47.160Z,4.26
2023-11-17T07:47:47.044Z,4.15
2023-11-17T07:48:53.947Z,4.22
2023-11-17T07:49:46.999Z,4.12
2023-11-17T07:50:46.934Z,4.09
2023-11-17T07:51:46.906Z,4.14
2023-11-17T07:52:46.884Z,4.14
2023-11-17T07:53:46.890Z,4.11
2023-11-17T07:54:46.828Z,4.04
2023-11-17T07:55:46.922Z,4.05
2023-11-17T07:56:46.884Z,4.04
2023-11-17T07:57:46.753Z,3.98
2023-11-17T07:58:46.711Z,4.05
2023-11-17T07:59:46.681Z,4.02
2023-11-17T08:00:46.665Z,4.05
2023-11-17T08:01:46.636Z,4.02
2023-11-17T08:02:46.766Z,4.02
2023-11-17T08:03:46.671Z,4.08
2023-11-17T08:04:46.710Z,4.12
2023-11-17T08:05:46.539Z,4.14
2023-11-17T08:06:46.495Z,4.06
2023-11-17T08:07:46.553Z,4.24
2023-11-17T08:08:46.431Z,4.20
2023-11-17T08:09:46.417Z,4.29
2023-11-17T08:10:46.373Z,4.16
2023-11-17T08:11:46.458Z,4.26
2023-11-17T08:12:46.326Z,4.29
2023-11-17T08:13:46.298Z,4.24
2023-11-17T08:14:46.260Z,4.26
2023-11-17T08:15:46.262Z,4.26
2023-11-17T08:16:46.268Z,4.16
2023-11-17T08:17:46.202Z,4.23
2023-11-17T08:18:46.162Z,4.27
2023-11-17T08:19:46.159Z,4.33
2023-11-17T08:20:46.090Z,4.33
2023-11-17T08:21:46.084Z,4.44
2023-11-17T08:22:46.065Z,4.37
2023-11-17T08:23:46.029Z,4.50
2023-11-17T08:24:45.997Z,4.51
2023-11-17T08:25:45.957Z,4.55
2023-11-17T08:26:45.939Z,4.59
2023-11-17T08:27:46.339Z,4.55
2023-11-17T08:28:45.870Z,4.63
2023-11-17T08:29:45.845Z,4.60
2023-11-17T08:30:50.538Z,4.59
2023-11-17T08:31:45.898Z,4.67
2023-11-17T08:32:45.765Z,4.65
2023-11-17T08:33:45.738Z,4.66
2023-11-17T08:34:45.701Z,4.65
2023-11-17T08:35:45.686Z,4.69
2023-11-17T08:36:45.654Z,4.72
2023-11-17T08:37:45.624Z,4.73
2023-11-17T08:38:45.592Z,4.67
2023-11-17T08:39:45.582Z,4.69
2023-11-17T08:40:45.551Z,4.77
2023-11-17T08:41:45.509Z,4.72
2023-11-17T08:42:45.488Z,4.66
2023-11-17T08:43:46.150Z,4.73
2023-11-17T08:44:45.433Z,4.77
2023-11-17T08:45:45.491Z,4.72
2023-11-17T08:46:45.462Z,4.72
2023-11-17T08:47:45.388Z,4.77
2023-11-17T08:48:45.314Z,4.73
2023-11-17T08:49:45.298Z,4.63
2023-11-17T08:50:45.254Z,4.67
2023-11-17T08:51:45.236Z,4.67
2023-11-17T08:52:45.207Z,4.59
2023-11-17T08:53:45.178Z,4.70
2023-11-17T08:54:45.146Z,4.59
2023-11-17T08:55:45.650Z,4.65
2023-11-17T08:56:45.088Z,4.70
2023-11-17T08:57:45.070Z,4.55
2023-11-17T08:58:45.096Z,4.62
2023-11-17T08:59:45.131Z,4.63
2023-11-17T09:00:44.982Z,4.59
2023-11-17T09:01:45.280Z,4.73
2023-11-17T09:02:44.948Z,4.66
2023-11-17T09:03:44.918Z,4.69
2023-11-17T09:04:44.909Z,4.78
2023-11-17T09:05:44.845Z,4.73
2023-11-17T09:06:44.813Z,4.73
2023-11-17T09:07:44.813Z,4.73
2023-11-17T09:08:44.762Z,4.77
2023-11-17T09:09:44.731Z,4.77
2023-11-17T09:10:44.824Z,4.67
2023-11-17T09:11:44.674Z,4.69
2023-11-17T09:12:47.946Z,4.73
2023-11-17T09:13:44.667Z,4.70
2023-11-17T09:14:44.585Z,4.77
2023-11-17T09:15:44.756Z,4.62
2023-11-17T09:16:49.690Z,4.78
2023-11-17T09:17:44.580Z,4.73
2023-11-17T09:18:44.482Z,4.73
2023-11-17T09:19:44.490Z,4.69
2023-11-17T09:20:44.425Z,4.73
2023-11-17T09:21:44.398Z,4.69
2023-11-17T09:22:44.365Z,4.63
2023-11-17T09:23:44.344Z,4.66
2023-11-17T09:24:44.312Z,4.69
2023-11-17T09:25:44.387Z,4.63
2023-11-17T09:26:44.280Z,4.51
2023-11-17T09:27:44.227Z,4.42
2023-11-17T09:28:44.215Z,4.45
2023-11-17T09:29:44.230Z,4.48
2023-11-17T09:30:47.551Z,4.32
2023-11-17T09:31:44.261Z,4.45
2023-11-17T09:32:44.103Z,4.42
2023-11-17T09:33:44.084Z,4.48
2023-11-17T09:34:44.069Z,4.51
2023-11-17T09:35:44.033Z,4.36
2023-11-17T09:36:43.981Z,4.50
2023-11-17T09:37:43.992Z,4.45
2023-11-17T09:38:43.972Z,4.45
2023-11-17T09:39:43.900Z,4.41
2023-11-17T09:40:43.903Z,4.54
2023-11-17T09:41:43.854Z,4.44
2023-11-17T09:42:43.815Z,4.50
2023-11-17T09:43:43.874Z,4.52
2023-11-17T09:44:43.759Z,4.50
2023-11-17T09:45:43.740Z,4.42
2023-11-17T09:46:43.744Z,4.44
2023-11-17T09:47:43.959Z,4.47
2023-11-17T09:48:43.716Z,4.47
2023-11-17T09:49:43.924Z,4.45
2023-11-17T09:50:43.590Z,4.51
2023-11-17T09:51:43.560Z,4.55
2023-11-17T09:52:43.555Z,4.55
2023-11-17T09:53:43.502Z,4.66
2023-11-17T09:54:43.473Z,4.63
2023-11-17T09:55:43.600Z,4.65
2023-11-17T09:56:43.420Z,4.66
2023-11-17T09:57:43.480Z,4.63
2023-11-17T09:58:43.434Z,4.59
2023-11-17T09:59:43.336Z,4.48
2023-11-17T10:00:43.315Z,4.48
2023-11-17T10:01:43.354Z,4.48
2023-11-17T10:02:43.362Z,4.45
2023-11-17T10:03:43.505Z,4.45
2023-11-17T10:04:43.238Z,4.54
2023-11-17T10:05:43.213Z,4.54
2023-11-17T10:06:43.140Z,4.66
2023-11-17T10:07:43.169Z,4.67
2023-11-17T10:08:43.081Z,4.69
2023-11-17T10:09:43.058Z,4.72
2023-11-17T10:10:43.038Z,4.73
2023-11-17T10:11:43.005Z,4.67
2023-11-17T10:12:42.976Z,4.66
2023-11-17T10:13:42.988Z,4.75
2023-11-17T10:14:42.945Z,4.73
2023-11-17T10:15:43.307Z,4.72
2023-11-17T10:16:42.933Z,4.82
2023-11-17T10:17:42.842Z,4.86
2023-11-17T10:18:42.830Z,4.89
2023-11-17T10:19:42.947Z,4.86
2023-11-17T10:20:42.767Z,4.89
2023-11-17T10:21:42.722Z,4.94
2023-11-17T10:22:42.757Z,4.94
2023-11-17T10:23:42.666Z,4.92
2023-11-17T10:24:42.640Z,5.02
2023-11-17T10:25:42.626Z,5.04
2023-11-17T10:26:42.578Z,5.02
2023-11-17T10:27:42.577Z,5.06
2023-11-17T10:28:42.582Z,5.09
2023-11-17T10:29:42.493Z,5.18
2023-11-17T10:30:42.724Z,5.10
2023-11-17T10:31:42.552Z,5.25
2023-11-17T10:32:53.897Z,5.24
2023-11-17T10:33:42.476Z,5.15
2023-11-17T10:34:42.425Z,5.24
2023-11-17T10:35:42.442Z,5.09
2023-11-17T10:36:42.302Z,5.15
2023-11-17T10:37:42.268Z,5.22
2023-11-17T10:38:42.246Z,5.25
2023-11-17T10:39:49.342Z,5.33
2023-11-17T10:40:42.222Z,5.28
2023-11-17T10:41:42.152Z,5.40
2023-11-17T10:42:42.140Z,5.39
2023-11-17T10:43:42.129Z,5.38
2023-11-17T10:44:42.076Z,5.46
2023-11-17T10:45:42.060Z,5.28
2023-11-17T10:46:42.385Z,5.40
2023-11-17T10:47:42.009Z,5.40
2023-11-17T10:48:41.963Z,5.43
2023-11-17T10:49:41.943Z,5.49
2023-11-17T10:50:41.906Z,5.58
2023-11-17T10:51:41.982Z,5.60
2023-11-17T10:52:41.911Z,5.57
2023-11-17T10:53:41.848Z,5.54
2023-11-17T10:54:41.797Z,5.53
2023-11-17T10:55:41.813Z,5.53
2023-11-17T10:56:41.769Z,5.54
2023-11-17T10:57:41.714Z,5.51
2023-11-17T10:58:41.719Z,5.58
2023-11-17T10:59:48.830Z,5.58
2023-11-17T11:00:41.631Z,5.58
2023-11-17T11:01:41.670Z,5.60
2023-11-17T11:02:41.676Z,5.65
2023-11-17T11:03:41.613Z,5.63
2023-11-17T11:04:41.586Z,5.68
2023-11-17T11:05:41.495Z,5.71
2023-11-17T11:06:41.488Z,5.78
2023-11-17T11:07:41.583Z,5.76
2023-11-17T11:08:41.412Z,5.81
2023-11-17T11:09:41.436Z,5.67
2023-11-17T11:10:41.373Z,5.68
2023-11-17T11:11:41.322Z,5.76
2023-11-17T11:12:41.301Z,5.65
2023-11-17T11:13:41.380Z,5.78
2023-11-17T11:14:41.243Z,5.81
2023-11-17T11:15:41.216Z,5.65
2023-11-17T11:16:41.272Z,5.71
2023-11-17T11:17:41.177Z,5.68
2023-11-17T11:18:41.134Z,5.60
2023-11-17T11:19:49.391Z,5.68
2023-11-17T11:20:41.195Z,5.61
2023-11-17T11:21:41.056Z,5.65
2023-11-17T11:22:41.070Z,5.71
2023-11-17T11:23:41.121Z,5.79
2023-11-17T11:24:41.972Z,5.71
2023-11-17T11:25:40.978Z,5.74
2023-11-17T11:26:40.917Z,5.75
2023-11-17T11:27:40.886Z,5.79
2023-11-17T11:28:40.892Z,5.76
2023-11-17T11:29:40.859Z,5.78
2023-11-17T11:30:41.863Z,5.85
2023-11-17T11:31:40.861Z,5.96
2023-11-17T11:32:40.795Z,5.94
2023-11-17T11:33:40.726Z,5.78
2023-11-17T11:34:40.885Z,5.86
2023-11-17T11:35:40.665Z,5.83
2023-11-17T11:36:41.070Z,5.78
2023-11-17T11:37:40.633Z,5.82
2023-11-17T11:38:40.637Z,5.82
2023-11-17T11:39:40.676Z,5.91
2023-11-17T11:40:40.578Z,5.85
2023-11-17T11:41:40.499Z,5.93
2023-11-17T11:42:40.819Z,5.94
2023-11-17T11:43:40.514Z,5.90
2023-11-17T11:44:40.419Z,5.82
2023-11-17T11:45:40.390Z,5.91
2023-11-17T11:46:40.486Z,5.89
2023-11-17T11:47:40.383Z,5.91
2023-11-17T11:48:40.320Z,5.94
2023-11-17T11:49:40.297Z,6.00
2023-11-17T11:50:40.288Z,6.01
2023-11-17T11:51:40.219Z,5.97
2023-11-17T11:52:40.264Z,6.01
2023-11-17T11:53:40.171Z,6.03
2023-11-17T11:54:40.141Z,6.09
2023-11-17T11:55:40.260Z,6.00
2023-11-17T11:56:40.124Z,6.06
2023-11-17T11:57:40.053Z,6.03
2023-11-17T11:58:40.074Z,5.97
2023-11-17T11:59:40.002Z,5.94
2023-11-17T12:00:39.975Z,5.94
2023-11-17T12:01:39.976Z,5.97
2023-11-17T12:02:39.967Z,5.94
2023-11-17T12:03:39.980Z,6.00
2023-11-17T12:04:40.031Z,5.97
2023-11-17T12:05:39.838Z,6.00
2023-11-17T12:06:40.210Z,6.00
2023-11-17T12:07:39.799Z,5.99
2023-11-17T12:08:39.769Z,6.03
2023-11-17T12:09:39.724Z,5.94
2023-11-17T12:10:39.759Z,6.01
2023-11-17T12:11:39.790Z,6.01
2023-11-17T12:12:39.654Z,6.00
2023-11-17T12:13:39.715Z,6.06
2023-11-17T12:14:39.593Z,6.11
2023-11-17T12:15:39.559Z,6.21
2023-11-17T12:16:39.567Z,6.28
2023-11-17T12:17:39.541Z,6.15
2023-11-17T12:18:39.485Z,6.30
2023-11-17T12:19:39.454Z,6.30
2023-11-17T12:20:39.421Z,6.25
2023-11-17T12:21:39.391Z,6.22
2023-11-17T12:22:39.414Z,6.34
2023-11-17T12:23:39.338Z,6.17
2023-11-17T12:24:39.323Z,6.14
2023-11-17T12:25:39.327Z,6.34
2023-11-17T12:26:39.260Z,6.34
2023-11-17T12:27:39.349Z,6.33
2023-11-17T12:28:39.269Z,6.25
2023-11-17T12:29:41.216Z,6.34
2023-11-17T12:30:39.169Z,6.30
2023-11-17T12:31:39.238Z,6.31
2023-11-17T12:32:39.207Z,6.25
2023-11-17T12:33:39.078Z,6.33
2023-11-17T12:34:39.061Z,6.36
2023-11-17T12:35:39.028Z,6.40
2023-11-17T12:36:38.980Z,6.38
2023-11-17T12:37:39.017Z,6.43
2023-11-17T12:38:38.928Z,6.46
2023-11-17T12:39:38.904Z,6.55
2023-11-17T12:40:39.017Z,6.59
2023-11-17T12:41:38.845Z,6.59
2023-11-17T12:42:38.820Z,6.59
2023-11-17T12:43:38.828Z,6.76
2023-11-17T12:44:38.762Z,6.76
2023-11-17T12:45:38.742Z,6.73
2023-11-17T12:46:38.805Z,6.73
2023-11-17T12:47:38.923Z,6.74
2023-11-17T12:48:38.698Z,6.74
2023-11-17T12:49:38.644Z,6.84
2023-11-17T12:50:38.594Z,6.85
2023-11-17T12:51:38.585Z,6.80
2023-11-17T12:52:40.282Z,6.80
2023-11-17T12:53:50.298Z,6.92
2023-11-17T12:54:38.493Z,6.94
2023-11-17T12:55:38.524Z,6.94
2023-11-17T12:56:38.444Z,6.92
2023-11-17T12:57:38.492Z,6.89
2023-11-17T12:58:38.435Z,6.95
2023-11-17T12:59:38.387Z,7.07
2023-11-17T13:00:38.327Z,7.12
2023-11-17T13:01:38.386Z,7.10
2023-11-17T13:02:38.345Z,7.12
2023-11-17T13:03:38.325Z,7.12
2023-11-17T13:04:38.324Z,7.15
2023-11-17T13:05:38.194Z,7.23
2023-11-17T13:06:38.166Z,7.24
2023-11-17T13:07:38.141Z,7.17
2023-11-17T13:08:38.099Z,7.28
2023-11-17T13:09:38.067Z,7.17
2023-11-17T13:10:38.119Z,7.24
2023-11-17T13:11:38.020Z,7.20
2023-11-17T13:12:38.006Z,7.23
2023-11-17T13:13:38.003Z,7.30
2023-11-17T13:14:37.945Z,7.25
2023-11-17T13:15:37.936Z,7.21
2023-11-17T13:16:37.962Z,7.25
2023-11-17T13:17:38.189Z,7.23
2023-11-17T13:18:37.835Z,7.27